Time;durP1;ratioP1;P1;durP2;ratioP2;P2;SDS_P1;SDS_P2;PMS_P1;PMS_P2;Temp;Humidity;BMP_temperature;BMP_pressure;BME280_temperature;BME280_humidity;BME280_pressure;Samples;Min_cycle;Max_cycle;Signal;HPM_P1;HPM_P2
2022/05/15 00:00:37;;;;;;;;;;;;;;;;;;4917255;29;19961;-79
2022/05/15 00:03:04;;;;;;;;;;;;;;;;;;4916162;29;20391;-83
2022/05/15 00:05:29;;;;;;;;;;;;;;;;;;4917101;29;19942;-80
2022/05/15 00:07:56;;;;;;;;;;;;;;;;;;4915227;29;19957;-81
2022/05/15 00:10:22;;;;;;;;;;;;;;;;;;4914960;29;20030;-80
2022/05/15 00:12:47;;;;;;;;;;;;;;;;;;4915984;29;19919;-79
2022/05/15 00:15:13;;;;;;;;;;;;;;;;;;4917962;29;20061;-79
2022/05/15 00:17:38;;;;;;;;;;;;;;;;;;4916090;29;19920;-79
2022/05/15 00:20:04;;;;;;;;;;;;;;;;;;4916460;29;20026;-80
2022/05/15 00:22:32;;;;;;;;;;;;;;;;;;4916918;29;19930;-80
2022/05/15 00:24:58;;;;;;;;;;;;;;;;;;4917106;29;19923;-79
2022/05/15 00:27:23;;;;;;;;;;;;;;;;;;4916975;29;19930;-79
2022/05/15 00:29:48;;;;;;;;;;;;;;;;;;4916530;29;19923;-81
2022/05/15 00:32:14;;;;;;;;;;;;;;;;;;4915000;29;19923;-80
2022/05/15 00:34:39;;;;;;;;;;;;;;;;;;4916374;29;19974;-80
2022/05/15 00:37:04;;;;;;;;;;;;;;;;;;4916027;29;19984;-80
2022/05/15 00:39:30;;;;;;;;;;;;;;;;;;4915807;29;19926;-80
2022/05/15 00:41:55;;;;;;;;;;;;;;;;;;4915774;29;20257;-80
2022/05/15 00:44:21;;;;;;;;;;;;;;;;;;4916218;29;20402;-80
2022/05/15 00:46:46;;;;;;;;;;;;;;;;;;4915997;29;19943;-80
2022/05/15 00:49:13;;;;;;;;;;;;;;;;;;4917128;29;19986;-80
2022/05/15 00:52:07;;;;;;;;;;;;;;;;;;4911994;29;19970;-80
2022/05/15 00:54:36;;;;;;;;;;;;;;;;;;4910424;29;19927;-80
2022/05/15 00:57:03;;;;;;;;;;;;;;;;;;4915451;29;19923;-80
2022/05/15 00:59:30;;;;;;;;;;;;;;;;;;4915201;29;20387;-82
2022/05/15 01:01:55;;;;;;;;;;;;;;;;;;4916108;29;20457;-82
2022/05/15 01:04:21;;;;;;;;;;;;;;;;;;4914448;29;20014;-79
2022/05/15 01:06:46;;;;;;;;;;;;;;;;;;4914262;29;20025;-79
2022/05/15 01:09:13;;;;;;;;;;;;;;;;;;4914936;29;19929;-80
2022/05/15 01:11:39;;;;;;;;;;;;;;;;;;4916271;29;19930;-80
2022/05/15 01:14:08;;;;;;;;;;;;;;;;;;4916012;29;20002;-81
2022/05/15 01:16:33;;;;;;;;;;;;;;;;;;4914932;29;19967;-80
2022/05/15 01:18:59;;;;;;;;;;;;;;;;;;4912598;29;20430;-80
2022/05/15 01:21:33;;;;;;;;;;;;;;;;;;4912019;29;19929;-81
2022/05/15 01:24:00;;;;;;;;;;;;;;;;;;4911850;29;19970;-80
2022/05/15 01:26:26;;;;;;;;;;;;;;;;;;4914411;29;20380;-81
2022/05/15 01:28:51;;;;;;;;;;;;;;;;;;4913604;29;19930;-80
2022/05/15 01:31:17;;;;;;;;;;;;;;;;;;4915907;29;19934;-85
2022/05/15 01:33:46;;;;;;;;;;;;;;;;;;4915204;29;19930;-79
2022/05/15 01:36:11;;;;;;;;;;;;;;;;;;4928956;29;19933;-80
2022/05/15 01:38:37;;;;;;;;;;;;;;;;;;4916149;29;19923;-80
2022/05/15 01:41:02;;;;;;;;;;;;;;;;;;4913422;29;19923;-81
2022/05/15 01:43:28;;;;;;;;;;;;;;;;;;4915788;29;20014;-79
2022/05/15 01:45:53;;;;;;;;;;;;;;;;;;4898487;29;20359;-83
2022/05/15 01:48:19;;;;;;;;;;;;;;;;;;4912883;29;19927;-81
2022/05/15 01:50:44;;;;;;;;;;;;;;;;;;4897383;29;19941;-80
2022/05/15 01:53:09;;;;;;;;;;;;;;;;;;4915679;29;19923;-83
2022/05/15 01:55:35;;;;;;;;;;;;;;;;;;4913586;29;19981;-81
2022/05/15 01:58:01;;;;;;;;;;;;;;;;;;4913484;29;19934;-81
2022/05/15 02:00:27;;;;;;;;;;;;;;;;;;4913946;29;19930;-80
2022/05/15 02:02:52;;;;;;;;;;;;;;;;;;4913539;29;19927;-80
2022/05/15 02:05:18;;;;;;;;;;;;;;;;;;4911943;29;19927;-81
2022/05/15 02:07:44;;;;;;;;;;;;;;;;;;4914237;29;20299;-80
2022/05/15 02:10:10;;;;;;;;;;;;;;;;;;4914036;29;19923;-80
2022/05/15 02:12:35;;;;;;;;;;;;;;;;;;4914665;29;19927;-80
2022/05/15 02:15:02;;;;;;;;;;;;;;;;;;4914827;29;20405;-84
2022/05/15 02:17:27;;;;;;;;;;;;;;;;;;4914445;29;19923;-80
2022/05/15 02:19:53;;;;;;;;;;;;;;;;;;4913786;29;19927;-80
2022/05/15 02:22:19;;;;;;;;;;;;;;;;;;4913941;29;20311;-80
2022/05/15 02:24:45;;;;;;;;;;;;;;;;;;4915087;29;20303;-80
2022/05/15 02:27:10;;;;;;;;;;;;;;;;;;4916219;29;19930;-80
2022/05/15 02:29:36;;;;;;;;;;;;;;;;;;4914700;29;19923;-80
2022/05/15 02:32:02;;;;;;;;;;;;;;;;;;4914181;29;19973;-80
2022/05/15 02:34:27;;;;;;;;;;;;;;;;;;4914702;29;20402;-80
2022/05/15 02:36:52;;;;;;;;;;;;;;;;;;4914034;29;19978;-80
2022/05/15 02:39:18;;;;;;;;;;;;;;;;;;4912742;29;19923;-80
2022/05/15 02:41:43;;;;;;;;;;;;;;;;;;4913668;29;20071;-80
2022/05/15 02:44:09;;;;;;;;;;;;;;;;;;4912914;29;19994;-81
2022/05/15 02:46:34;;;;;;;;;;;;;;;;;;4909242;29;20483;-80
2022/05/15 02:51:44;;;;;;;;;;;;;;;;;;4912581;29;19977;-81
2022/05/15 02:54:09;;;;;;;;;;;;;;;;;;4914085;29;19923;-81
2022/05/15 02:56:35;;;;;;;;;;;;;;;;;;4914614;29;19934;-82
2022/05/15 02:59:01;;;;;;;;;;;;;;;;;;4913826;29;19927;-82
2022/05/15 03:01:26;;;;;;;;;;;;;;;;;;4913610;29;19931;-79
2022/05/15 03:03:52;;;;;;;;;;;;;;;;;;4912143;29;19927;-81
2022/05/15 03:06:18;;;;;;;;;;;;;;;;;;4914122;29;19991;-81
2022/05/15 03:08:44;;;;;;;;;;;;;;;;;;4913787;29;20026;-81
2022/05/15 03:11:10;;;;;;;;;;;;;;;;;;4913562;29;19930;-80
2022/05/15 03:13:36;;;;;;;;;;;;;;;;;;4913907;29;19931;-81
2022/05/15 03:16:02;;;;;;;;;;;;;;;;;;4913515;29;19923;-82
2022/05/15 03:18:28;;;;;;;;;;;;;;;;;;4914337;29;19990;-82
2022/05/15 03:20:53;;;;;;;;;;;;;;;;;;4913023;29;19927;-80
2022/05/15 03:23:19;;;;;;;;;;;;;;;;;;4908389;29;20288;-79
2022/05/15 03:25:44;;;;;;;;;;;;;;;;;;4914142;29;19987;-80
2022/05/15 03:28:10;;;;;;;;;;;;;;;;;;4913161;29;20022;-80
2022/05/15 03:30:39;;;;;;;;;;;;;;;;;;4911308;29;19989;-82
2022/05/15 03:33:04;;;;;;;;;;;;;;;;;;4913459;29;19930;-80
2022/05/15 03:35:30;;;;;;;;;;;;;;;;;;4913405;29;19923;-80
2022/05/15 03:37:55;;;;;;;;;;;;;;;;;;4914244;29;19978;-86
2022/05/15 03:40:21;;;;;;;;;;;;;;;;;;4910405;29;20403;-81
2022/05/15 03:42:46;;;;;;;;;;;;;;;;;;4912793;29;19923;-84
2022/05/15 03:45:12;;;;;;;;;;;;;;;;;;4913337;29;19923;-81
2022/05/15 03:47:48;;;;;;;;;;;;;;;;;;4912419;29;20461;-81
2022/05/15 03:50:14;;;;;;;;;;;;;;;;;;4911917;29;19923;-81
2022/05/15 03:52:40;;;;;;;;;;;;;;;;;;4913077;29;20303;-80
2022/05/15 03:55:05;;;;;;;;;;;;;;;;;;4912911;29;19927;-81
2022/05/15 03:57:31;;;;;;;;;;;;;;;;;;4914150;29;19923;-81
2022/05/15 03:59:56;;;;;;;;;;;;;;;;;;4913795;29;20009;-80
2022/05/15 04:02:22;;;;;;;;;;;;;;;;;;4913417;29;19923;-84
2022/05/15 04:04:47;;;;;;;;;;;;;;;;;;4913167;29;19923;-81
2022/05/15 04:07:13;;;;;;;;;;;;;;;;;;4913822;29;19923;-80
2022/05/15 04:09:40;;;;;;;;;;;;;;;;;;4913656;29;19923;-82
2022/05/15 04:12:07;;;;;;;;;;;;;;;;;;4912175;29;20013;-80
2022/05/15 04:14:32;;;;;;;;;;;;;;;;;;4912197;29;20010;-81
2022/05/15 04:16:58;;;;;;;;;;;;;;;;;;4913265;29;20038;-80
2022/05/15 04:19:24;;;;;;;;;;;;;;;;;;4913728;29;20362;-84
2022/05/15 04:21:50;;;;;;;;;;;;;;;;;;4914303;29;19927;-80
2022/05/15 04:24:16;;;;;;;;;;;;;;;;;;4915447;29;19999;-80
2022/05/15 04:26:42;;;;;;;;;;;;;;;;;;4916527;29;20021;-81
2022/05/15 04:29:08;;;;;;;;;;;;;;;;;;4916024;29;19938;-82
2022/05/15 04:31:34;;;;;;;;;;;;;;;;;;4916166;29;19927;-82
2022/05/15 04:34:00;;;;;;;;;;;;;;;;;;4915699;29;19923;-81
2022/05/15 04:36:25;;;;;;;;;;;;;;;;;;4916140;29;19945;-81
2022/05/15 04:38:51;;;;;;;;;;;;;;;;;;4916098;29;20421;-82
2022/05/15 04:41:16;;;;;;;;;;;;;;;;;;4916776;29;19923;-81
2022/05/15 04:43:42;;;;;;;;;;;;;;;;;;4915893;29;20399;-80
2022/05/15 04:46:08;;;;;;;;;;;;;;;;;;4915331;29;19930;-81
2022/05/15 04:48:34;;;;;;;;;;;;;;;;;;4915858;29;19931;-80
2022/05/15 04:50:59;;;;;;;;;;;;;;;;;;4913746;29;19930;-83
2022/05/15 04:53:27;;;;;;;;;;;;;;;;;;4917435;29;19970;-81
2022/05/15 04:55:52;;;;;;;;;;;;;;;;;;4916522;29;20026;-81
2022/05/15 04:58:18;;;;;;;;;;;;;;;;;;4916496;29;20014;-79
2022/05/15 05:00:43;;;;;;;;;;;;;;;;;;4916522;29;20011;-84
2022/05/15 05:03:09;;;;;;;;;;;;;;;;;;4913309;29;19923;-81
2022/05/15 05:05:34;;;;;;;;;;;;;;;;;;4917156;29;19927;-81
2022/05/15 05:07:59;;;;;;;;;;;;;;;;;;4913583;29;19927;-80
2022/05/15 05:10:25;;;;;;;;;;;;;;;;;;4915731;29;20452;-81
2022/05/15 05:12:50;;;;;;;;;;;;;;;;;;4916908;29;20299;-80
2022/05/15 05:15:18;;;;;;;;;;;;;;;;;;4914907;29;20266;-79
2022/05/15 05:17:43;;;;;;;;;;;;;;;;;;4918304;29;19942;-87
2022/05/15 05:20:12;;;;;;;;;;;;;;;;;;4918494;29;19965;-83
2022/05/15 05:22:38;;;;;;;;;;;;;;;;;;4918538;29;19915;-79
2022/05/15 05:25:03;;;;;;;;;;;;;;;;;;4918120;29;19925;-82
2022/05/15 05:27:29;;;;;;;;;;;;;;;;;;4918398;29;20001;-81
2022/05/15 05:29:54;;;;;;;;;;;;;;;;;;4917999;29;19915;-79
2022/05/15 05:32:20;;;;;;;;;;;;;;;;;;4915868;29;20010;-80
2022/05/15 05:34:45;;;;;;;;;;;;;;;;;;4916694;29;19959;-81
2022/05/15 05:37:11;;;;;;;;;;;;;;;;;;4916934;29;19923;-79
2022/05/15 05:39:36;;;;;;;;;;;;;;;;;;4918124;29;19923;-81
2022/05/15 05:42:02;;;;;;;;;;;;;;;;;;4916860;29;20335;-80
2022/05/15 05:44:27;;;;;;;;;;;;;;;;;;4917737;29;19930;-83
2022/05/15 05:46:52;;;;;;;;;;;;;;;;;;4916755;29;19916;-81
2022/05/15 05:49:18;;;;;;;;;;;;;;;;;;4917804;29;20323;-79
2022/05/15 05:51:45;;;;;;;;;;;;;;;;;;4917643;29;19924;-80
2022/05/15 05:54:11;;;;;;;;;;;;;;;;;;4917829;29;19927;-82
2022/05/15 05:56:36;;;;;;;;;;;;;;;;;;4917774;29;19923;-80
2022/05/15 05:59:02;;;;;;;;;;;;;;;;;;4918120;29;20010;-84
2022/05/15 06:01:27;;;;;;;;;;;;;;;;;;4917844;29;20459;-82
2022/05/15 06:06:36;;;;;;;;;;;;;;;;;;4917660;29;19930;-80
2022/05/15 06:09:02;;;;;;;;;;;;;;;;;;4917513;29;19919;-80
2022/05/15 06:11:28;;;;;;;;;;;;;;;;;;4917195;29;20343;-81
2022/05/15 06:13:53;;;;;;;;;;;;;;;;;;4917317;29;19928;-80
2022/05/15 06:16:19;;;;;;;;;;;;;;;;;;4917507;29;20287;-86
2022/05/15 06:18:44;;;;;;;;;;;;;;;;;;4932019;29;19923;-82
2022/05/15 06:21:10;;;;;;;;;;;;;;;;;;4916328;29;19948;-85
2022/05/15 06:23:35;;;;;;;;;;;;;;;;;;4916236;29;19975;-81
2022/05/15 06:26:01;;;;;;;;;;;;;;;;;;4916697;29;19966;-83
2022/05/15 06:28:29;;;;;;;;;;;;;;;;;;4916874;29;19955;-81
2022/05/15 06:30:54;;;;;;;;;;;;;;;;;;4911234;29;19931;-80
2022/05/15 06:33:20;;;;;;;;;;;;;;;;;;4904540;29;19927;-79
2022/05/15 06:35:45;;;;;;;;;;;;;;;;;;4903764;29;19929;-78
2022/05/15 06:38:11;;;;;;;;;;;;;;;;;;4916957;29;20261;-78
2022/05/15 06:40:36;;;;;;;;;;;;;;;;;;4917352;29;19962;-84
2022/05/15 06:43:02;;;;;;;;;;;;;;;;;;4917045;29;19915;-79
2022/05/15 06:45:28;;;;;;;;;;;;;;;;;;4916398;29;19919;-79
2022/05/15 06:47:53;;;;;;;;;;;;;;;;;;4914523;29;19919;-86
2022/05/15 06:50:19;;;;;;;;;;;;;;;;;;4915135;29;19927;-82
2022/05/15 06:52:44;;;;;;;;;;;;;;;;;;4911218;29;19923;-90
2022/05/15 06:55:14;;;;;;;;;;;;;;;;;;4915531;29;19922;-88
2022/05/15 06:57:41;;;;;;;;;;;;;;;;;;4916734;29;19919;-91
2022/05/15 07:00:09;;;;;;;;;;;;;;;;;;4916947;29;19978;-85
2022/05/15 07:02:36;;;;;;;;;;;;;;;;;;4913890;29;19923;-85
2022/05/15 07:05:01;;;;;;;;;;;;;;;;;;4914721;29;19930;-82
2022/05/15 07:07:27;;;;;;;;;;;;;;;;;;4913120;29;19931;-79
2022/05/15 07:09:52;;;;;;;;;;;;;;;;;;4911519;29;20029;-83
2022/05/15 07:12:17;;;;;;;;;;;;;;;;;;4912420;29;19930;-81
2022/05/15 07:14:43;;;;;;;;;;;;;;;;;;4916564;29;19920;-81
2022/05/15 07:17:08;;;;;;;;;;;;;;;;;;4916661;29;19923;-85
2022/05/15 07:19:34;;;;;;;;;;;;;;;;;;4916623;29;20368;-82
2022/05/15 07:21:59;;;;;;;;;;;;;;;;;;4916655;29;19968;-81
2022/05/15 07:24:25;;;;;;;;;;;;;;;;;;4916027;29;20158;-82
2022/05/15 07:26:51;;;;;;;;;;;;;;;;;;4916521;29;19990;-85
2022/05/15 07:29:16;;;;;;;;;;;;;;;;;;4916490;29;19919;-83
2022/05/15 07:31:42;;;;;;;;;;;;;;;;;;4916154;29;19958;-82
2022/05/15 07:34:08;;;;;;;;;;;;;;;;;;4916325;29;19919;-81
2022/05/15 07:36:34;;;;;;;;;;;;;;;;;;4916384;29;19930;-82
2022/05/15 07:38:59;;;;;;;;;;;;;;;;;;4916725;29;19993;-83
2022/05/15 07:41:25;;;;;;;;;;;;;;;;;;4916303;29;20009;-81
2022/05/15 07:43:50;;;;;;;;;;;;;;;;;;4916359;29;20021;-82
2022/05/15 07:46:16;;;;;;;;;;;;;;;;;;4915963;29;20303;-81
2022/05/15 07:48:41;;;;;;;;;;;;;;;;;;4914987;29;19923;-82
2022/05/15 07:51:07;;;;;;;;;;;;;;;;;;4915895;29;19923;-82
2022/05/15 07:53:32;;;;;;;;;;;;;;;;;;4916198;29;19927;-85
2022/05/15 07:56:09;;;;;;;;;;;;;;;;;;4910401;29;19945;-83
2022/05/15 07:58:35;;;;;;;;;;;;;;;;;;4906101;29;19931;-83
2022/05/15 08:01:04;;;;;;;;;;;;;;;;;;4913171;29;19933;-84
2022/05/15 08:03:33;;;;;;;;;;;;;;;;;;4912814;29;20656;-88
2022/05/15 08:08:43;;;;;;;;;;;;;;;;;;4912958;29;20684;-88
2022/05/15 08:11:08;;;;;;;;;;;;;;;;;;4912081;29;19970;-82
2022/05/15 08:13:34;;;;;;;;;;;;;;;;;;4911703;29;19966;-87
2022/05/15 08:15:59;;;;;;;;;;;;;;;;;;4915428;29;20376;-83
2022/05/15 08:24:02;;;;;;;;;;;;;;;;;;4919492;29;19971;-81
2022/05/15 08:26:28;;;;;;;;;;;;;;;;;;4919182;29;20014;-82
2022/05/15 08:28:54;;;;;;;;;;;;;;;;;;4918019;29;20368;-81
2022/05/15 08:31:20;;;;;;;;;;;;;;;;;;4917345;29;20296;-81
2022/05/15 08:33:46;;;;;;;;;;;;;;;;;;4919167;29;20363;-81
2022/05/15 08:36:12;;;;;;;;;;;;;;;;;;4919169;29;19926;-89
2022/05/15 08:38:38;;;;;;;;;;;;;;;;;;4912764;29;19927;-83
2022/05/15 08:41:03;;;;;;;;;;;;;;;;;;4919237;29;19923;-82
2022/05/15 08:43:37;;;;;;;;;;;;;;;;;;4918277;29;19926;-84
2022/05/15 08:46:04;;;;;;;;;;;;;;;;;;4918118;29;20300;-82
2022/05/15 08:48:33;;;;;;;;;;;;;;;;;;4919094;29;19919;-87
2022/05/15 08:51:00;;;;;;;;;;;;;;;;;;4908107;29;19923;-86
2022/05/15 08:53:32;;;;;;;;;;;;;;;;;;4908624;29;19933;-85
2022/05/15 08:55:59;;;;;;;;;;;;;;;;;;4918433;29;20341;-84
2022/05/15 08:58:35;;;;;;;;;;;;;;;;;;4918656;29;19927;-85
2022/05/15 09:01:03;;;;;;;;;;;;;;;;;;4919041;29;19923;-84
2022/05/15 09:03:31;;;;;;;;;;;;;;;;;;4918776;29;20368;-85
2022/05/15 09:06:06;;;;;;;;;;;;;;;;;;4918584;29;20383;-85
2022/05/15 09:08:57;;;;;;;;;;;;;;;;;;4918864;29;19962;-84
2022/05/15 09:11:26;;;;;;;;;;;;;;;;;;4899582;29;19923;-82
2022/05/15 09:13:55;;;;;;;;;;;;;;;;;;4907444;29;19975;-82
2022/05/15 09:16:25;;;;;;;;;;;;;;;;;;4918562;29;19927;-79
2022/05/15 09:18:51;;;;;;;;;;;;;;;;;;4918462;29;20375;-79
2022/05/15 09:21:17;;;;;;;;;;;;;;;;;;4918607;29;20010;-79
2022/05/15 09:23:48;;;;;;;;;;;;;;;;;;4918527;29;19915;-78
2022/05/15 09:26:22;;;;;;;;;;;;;;;;;;4918082;29;19923;-82
2022/05/15 09:29:12;;;;;;;;;;;;;;;;;;4917146;29;19915;-85
2022/05/15 09:31:42;;;;;;;;;;;;;;;;;;4917867;29;20273;-79
2022/05/15 09:34:28;;;;;;;;;;;;;;;;;;4917152;29;19919;-79
2022/05/15 09:39:42;;;;;;;;;;;;;;;;;;4907226;29;20280;-82
2022/05/15 09:45:07;;;;;;;;;;;;;;;;;;4917868;29;19926;-79
2022/05/15 09:47:35;;;;;;;;;;;;;;;;;;4917884;29;19923;-80
2022/05/15 09:50:01;;;;;;;;;;;;;;;;;;4913720;29;19946;-79
2022/05/15 09:52:30;;;;;;;;;;;;;;;;;;4917501;29;20368;-80
2022/05/15 09:55:18;;;;;;;;;;;;;;;;;;4917902;29;20403;-84
2022/05/15 09:57:57;;;;;;;;;;;;;;;;;;4917704;29;19983;-81
2022/05/15 10:00:23;;;;;;;;;;;;;;;;;;4917686;29;19926;-82
2022/05/15 10:02:51;;;;;;;;;;;;;;;;;;4917526;29;19923;-83
2022/05/15 10:05:26;;;;;;;;;;;;;;;;;;4916985;29;19926;-79
2022/05/15 10:08:02;;;;;;;;;;;;;;;;;;4917447;29;19919;-87
2022/05/15 10:10:35;;;;;;;;;;;;;;;;;;4917290;29;19935;-83
2022/05/15 10:13:23;;;;;;;;;;;;;;;;;;4916111;29;19994;-82
2022/05/15 10:15:50;;;;;;;;;;;;;;;;;;4914318;29;20432;-80
2022/05/15 10:18:20;;;;;;;;;;;;;;;;;;4917258;29;19923;-80
2022/05/15 10:20:47;;;;;;;;;;;;;;;;;;4917181;29;19923;-83
2022/05/15 10:23:17;;;;;;;;;;;;;;;;;;4917496;29;19919;-82
2022/05/15 10:25:49;;;;;;;;;;;;;;;;;;4916952;29;20063;-80
2022/05/15 10:28:17;;;;;;;;;;;;;;;;;;4917339;29;19919;-85
2022/05/15 10:30:56;;;;;;;;;;;;;;;;;;4917221;29;19923;-89
2022/05/15 10:33:22;;;;;;;;;;;;;;;;;;4917187;29;20328;-85
2022/05/15 10:35:54;;;;;;;;;;;;;;;;;;4916991;29;20017;-87
2022/05/15 10:38:32;;;;;;;;;;;;;;;;;;4917026;29;19920;-81
2022/05/15 10:41:05;;;;;;;;;;;;;;;;;;4917063;29;20006;-80
2022/05/15 10:43:33;;;;;;;;;;;;;;;;;;4917036;29;19958;-80
2022/05/15 10:46:02;;;;;;;;;;;;;;;;;;4916629;29;19919;-80
2022/05/15 10:48:50;;;;;;;;;;;;;;;;;;4931327;29;20304;-82
2022/05/15 10:51:21;;;;;;;;;;;;;;;;;;4916741;29;20376;-80
2022/05/15 10:59:49;;;;;;;;;;;;;;;;;;4916871;29;19966;-81
2022/05/15 11:02:33;;;;;;;;;;;;;;;;;;4916686;29;19920;-88
2022/05/15 11:05:17;;;;;;;;;;;;;;;;;;4916948;29;20034;-85
2022/05/15 11:08:01;;;;;;;;;;;;;;;;;;4916255;29;19919;-89
2022/05/15 11:10:32;;;;;;;;;;;;;;;;;;4916639;29;19946;-81
2022/05/15 11:13:16;;;;;;;;;;;;;;;;;;4915135;29;20485;-85
2022/05/15 11:15:54;;;;;;;;;;;;;;;;;;4916442;29;19919;-82
2022/05/15 11:18:19;;;;;;;;;;;;;;;;;;4916741;29;20291;-82
2022/05/15 11:20:55;;;;;;;;;;;;;;;;;;4916583;29;19919;-81
2022/05/15 11:23:38;;;;;;;;;;;;;;;;;;4916547;29;19926;-81
2022/05/15 11:26:08;;;;;;;;;;;;;;;;;;4915041;29;19919;-86
2022/05/15 11:28:37;;;;;;;;;;;;;;;;;;4916539;29;19962;-88
2022/05/15 11:31:06;;;;;;;;;;;;;;;;;;4931605;29;19918;-82
2022/05/15 11:33:44;;;;;;;;;;;;;;;;;;4920513;29;20054;-83
2022/05/15 11:36:21;;;;;;;;;;;;;;;;;;4920354;29;19927;-83
2022/05/15 11:39:01;;;;;;;;;;;;;;;;;;4920164;29;19922;-86
2022/05/15 11:42:08;;;;;;;;;;;;;;;;;;4920308;29;20017;-89
2022/05/15 11:44:38;;;;;;;;;;;;;;;;;;4918065;29;19923;-82
2022/05/15 11:47:22;;;;;;;;;;;;;;;;;;4919660;29;20299;-89
2022/05/15 11:50:17;;;;;;;;;;;;;;;;;;4920262;29;19919;-81
2022/05/15 11:52:51;;;;;;;;;;;;;;;;;;4914999;29;20022;-84
2022/05/15 11:55:35;;;;;;;;;;;;;;;;;;4919925;29;19973;-82
2022/05/15 11:58:21;;;;;;;;;;;;;;;;;;4920019;29;20056;-84
2022/05/15 12:01:19;;;;;;;;;;;;;;;;;;4919994;29;19931;-81
2022/05/15 12:03:44;;;;;;;;;;;;;;;;;;4908133;29;19919;-83
2022/05/15 12:06:14;;;;;;;;;;;;;;;;;;4919560;29;19919;-80
2022/05/15 12:08:41;;;;;;;;;;;;;;;;;;4919749;29;20492;-86
2022/05/15 12:11:19;;;;;;;;;;;;;;;;;;4919733;29;19922;-82
2022/05/15 12:13:45;;;;;;;;;;;;;;;;;;4919248;29;20276;-87
2022/05/15 12:16:14;;;;;;;;;;;;;;;;;;4918380;29;20273;-86
2022/05/15 12:18:40;;;;;;;;;;;;;;;;;;4918076;29;20013;-82
2022/05/15 12:21:06;;;;;;;;;;;;;;;;;;4918418;29;20066;-81
2022/05/15 12:24:26;;;;;;;;;;;;;;;;;;4919653;29;19915;-81
2022/05/15 12:26:41;;;;;;;;;;;;;;;;;;4919024;29;19930;-81
2022/05/15 12:29:16;;;;;;;;;;;;;;;;;;4919788;29;19926;-84
2022/05/15 12:31:46;;;;;;;;;;;;;;;;;;4918123;29;19919;-84
2022/05/15 12:34:14;;;;;;;;;;;;;;;;;;4919178;29;20372;-81
2022/05/15 12:36:52;;;;;;;;;;;;;;;;;;4919152;29;20071;-86
2022/05/15 12:39:21;;;;;;;;;;;;;;;;;;4919272;29;19919;-82
2022/05/15 12:41:46;;;;;;;;;;;;;;;;;;4918756;29;20125;-84
2022/05/15 12:44:12;;;;;;;;;;;;;;;;;;4917879;29;20016;-86
2022/05/15 12:46:58;;;;;;;;;;;;;;;;;;4918707;29;20276;-89
2022/05/15 12:49:32;;;;;;;;;;;;;;;;;;4918865;29;19926;-81
2022/05/15 12:52:17;;;;;;;;;;;;;;;;;;4918738;29;19927;-81
2022/05/15 12:54:44;;;;;;;;;;;;;;;;;;4918804;29;19970;-83
2022/05/15 12:57:12;;;;;;;;;;;;;;;;;;4918897;29;19919;-86
2022/05/15 12:59:39;;;;;;;;;;;;;;;;;;4917003;29;20302;-81
2022/05/15 13:02:20;;;;;;;;;;;;;;;;;;4918993;29;19915;-83
2022/05/15 13:04:48;;;;;;;;;;;;;;;;;;4918827;29;19927;-81
2022/05/15 13:07:13;;;;;;;;;;;;;;;;;;4917201;29;19915;-82
2022/05/15 13:09:39;;;;;;;;;;;;;;;;;;4918671;29;20272;-84
2022/05/15 13:12:05;;;;;;;;;;;;;;;;;;4918589;29;20302;-80
2022/05/15 13:14:41;;;;;;;;;;;;;;;;;;4918456;29;20014;-80
2022/05/15 13:17:07;;;;;;;;;;;;;;;;;;4918798;29;19923;-80
2022/05/15 13:19:34;;;;;;;;;;;;;;;;;;4917394;29;19932;-86
2022/05/15 13:22:00;;;;;;;;;;;;;;;;;;4918499;29;20435;-81
2022/05/15 13:24:26;;;;;;;;;;;;;;;;;;4918760;29;19920;-81
2022/05/15 13:26:52;;;;;;;;;;;;;;;;;;4918074;29;20458;-86
2022/05/15 13:29:20;;;;;;;;;;;;;;;;;;4918415;29;20006;-81
2022/05/15 13:31:47;;;;;;;;;;;;;;;;;;4918311;29;20277;-80
2022/05/15 13:34:14;;;;;;;;;;;;;;;;;;4915715;29;20392;-81
2022/05/15 13:36:56;;;;;;;;;;;;;;;;;;4918061;29;19975;-81
2022/05/15 13:44:51;;;;;;;;;;;;;;;;;;4918498;29;19926;-81
2022/05/15 13:47:17;;;;;;;;;;;;;;;;;;4916425;29;19919;-82
2022/05/15 13:49:47;;;;;;;;;;;;;;;;;;4918130;29;19919;-81
2022/05/15 13:52:22;;;;;;;;;;;;;;;;;;4917879;29;19931;-81
2022/05/15 13:54:47;;;;;;;;;;;;;;;;;;4916866;29;19919;-84
2022/05/15 13:57:13;;;;;;;;;;;;;;;;;;4917673;29;20390;-82
2022/05/15 13:59:43;;;;;;;;;;;;;;;;;;4917759;29;19920;-82
2022/05/15 14:02:16;;;;;;;;;;;;;;;;;;4917782;29;19919;-81
2022/05/15 14:04:46;;;;;;;;;;;;;;;;;;4917337;29;20387;-82
2022/05/15 14:07:24;;;;;;;;;;;;;;;;;;4913233;29;19954;-84
2022/05/15 14:09:51;;;;;;;;;;;;;;;;;;4917465;29;19923;-85
2022/05/15 14:12:18;;;;;;;;;;;;;;;;;;4917874;29;20393;-83
2022/05/15 14:14:57;;;;;;;;;;;;;;;;;;4912442;29;19931;-83
2022/05/15 14:17:25;;;;;;;;;;;;;;;;;;4917455;29;19943;-82
2022/05/15 14:19:56;;;;;;;;;;;;;;;;;;4917368;29;20403;-81
2022/05/15 14:22:22;;;;;;;;;;;;;;;;;;4917352;29;20398;-82
2022/05/15 14:24:48;;;;;;;;;;;;;;;;;;4917336;29;20383;-82
2022/05/15 14:27:14;;;;;;;;;;;;;;;;;;4910294;29;19923;-82
2022/05/15 14:29:40;;;;;;;;;;;;;;;;;;4915559;29;19919;-82
2022/05/15 14:32:07;;;;;;;;;;;;;;;;;;4915679;29;19967;-86
2022/05/15 14:34:32;;;;;;;;;;;;;;;;;;4916783;29;19971;-82
2022/05/15 14:36:58;;;;;;;;;;;;;;;;;;4908927;29;19926;-84
2022/05/15 14:39:23;;;;;;;;;;;;;;;;;;4909126;29;20363;-87
2022/05/15 14:41:48;;;;;;;;;;;;;;;;;;4909769;29;20387;-87
2022/05/15 14:44:14;;;;;;;;;;;;;;;;;;4910625;29;19939;-83
2022/05/15 14:46:41;;;;;;;;;;;;;;;;;;4912172;29;20359;-82
2022/05/15 14:49:09;;;;;;;;;;;;;;;;;;4910622;29;19927;-82
2022/05/15 14:51:34;;;;;;;;;;;;;;;;;;4909954;29;19938;-83
2022/05/15 14:54:01;;;;;;;;;;;;;;;;;;4908693;29;19927;-87
2022/05/15 14:56:28;;;;;;;;;;;;;;;;;;4916733;29;20406;-81
2022/05/15 14:59:01;;;;;;;;;;;;;;;;;;4916833;29;19927;-82
2022/05/15 15:01:27;;;;;;;;;;;;;;;;;;4916869;29;19923;-81
2022/05/15 15:03:53;;;;;;;;;;;;;;;;;;4916748;29;19966;-82
2022/05/15 15:06:19;;;;;;;;;;;;;;;;;;4909167;29;20014;-80
2022/05/15 15:08:44;;;;;;;;;;;;;;;;;;4908671;29;20014;-83
2022/05/15 15:11:12;;;;;;;;;;;;;;;;;;4912463;29;19993;-86
2022/05/15 15:13:37;;;;;;;;;;;;;;;;;;4908599;29;20411;-87
2022/05/15 15:16:03;;;;;;;;;;;;;;;;;;4909506;29;19954;-87
2022/05/15 15:18:28;;;;;;;;;;;;;;;;;;4909515;29;19937;-82
2022/05/15 15:20:54;;;;;;;;;;;;;;;;;;4905655;29;19970;-89
2022/05/15 15:23:20;;;;;;;;;;;;;;;;;;4904729;29;19931;-85
2022/05/15 15:25:45;;;;;;;;;;;;;;;;;;4914423;29;19927;-83
2022/05/15 15:28:10;;;;;;;;;;;;;;;;;;4915226;29;19930;-84
2022/05/15 15:30:36;;;;;;;;;;;;;;;;;;4916132;29;20058;-82
2022/05/15 15:33:03;;;;;;;;;;;;;;;;;;4916345;29;19923;-86
2022/05/15 15:35:28;;;;;;;;;;;;;;;;;;4916179;29;20279;-87
2022/05/15 15:40:38;;;;;;;;;;;;;;;;;;4916781;29;19966;-80
2022/05/15 15:43:03;;;;;;;;;;;;;;;;;;4922308;29;19919;-80
2022/05/15 15:45:29;;;;;;;;;;;;;;;;;;4911890;29;20372;-81
2022/05/15 15:47:54;;;;;;;;;;;;;;;;;;4903594;29;20086;-81
2022/05/15 15:50:20;;;;;;;;;;;;;;;;;;4902264;29;19937;-85
2022/05/15 15:52:45;;;;;;;;;;;;;;;;;;4903058;29;20217;-81
2022/05/15 15:55:12;;;;;;;;;;;;;;;;;;4904014;29;20427;-81
2022/05/15 15:57:38;;;;;;;;;;;;;;;;;;4907220;29;19949;-81
2022/05/15 16:00:05;;;;;;;;;;;;;;;;;;4906353;29;19927;-81
2022/05/15 16:02:30;;;;;;;;;;;;;;;;;;4908031;29;19923;-80
2022/05/15 16:04:56;;;;;;;;;;;;;;;;;;4907916;29;19923;-85
2022/05/15 16:07:22;;;;;;;;;;;;;;;;;;4916968;29;20371;-81
2022/05/15 16:09:47;;;;;;;;;;;;;;;;;;4907064;29;20380;-85
2022/05/15 16:12:13;;;;;;;;;;;;;;;;;;4901164;29;19928;-82
2022/05/15 16:14:39;;;;;;;;;;;;;;;;;;4912909;29;19927;-79
2022/05/15 16:17:08;;;;;;;;;;;;;;;;;;4919808;29;19927;-79
2022/05/15 16:19:34;;;;;;;;;;;;;;;;;;4910453;29;19923;-88
2022/05/15 16:22:00;;;;;;;;;;;;;;;;;;4910920;29;19934;-85
2022/05/15 16:24:28;;;;;;;;;;;;;;;;;;4904752;29;19931;-79
2022/05/15 16:26:55;;;;;;;;;;;;;;;;;;4906232;29;19993;-78
2022/05/15 16:29:20;;;;;;;;;;;;;;;;;;4906009;29;19927;-79
2022/05/15 16:31:46;;;;;;;;;;;;;;;;;;4919205;29;19938;-84
2022/05/15 16:34:12;;;;;;;;;;;;;;;;;;4919179;29;19919;-79
2022/05/15 16:36:38;;;;;;;;;;;;;;;;;;4919198;29;19920;-79
2022/05/15 16:39:03;;;;;;;;;;;;;;;;;;4917979;29;19919;-81
2022/05/15 16:41:29;;;;;;;;;;;;;;;;;;4914910;29;19927;-81
2022/05/15 16:43:55;;;;;;;;;;;;;;;;;;4920728;29;20324;-80
2022/05/15 16:46:21;;;;;;;;;;;;;;;;;;4936031;29;19923;-84
2022/05/15 16:48:47;;;;;;;;;;;;;;;;;;4936405;29;19934;-81
2022/05/15 16:51:12;;;;;;;;;;;;;;;;;;4938142;29;19929;-86
2022/05/15 16:53:38;;;;;;;;;;;;;;;;;;4938115;29;20363;-80
2022/05/15 16:56:04;;;;;;;;;;;;;;;;;;4937881;29;20414;-80
2022/05/15 16:58:30;;;;;;;;;;;;;;;;;;4937788;29;19918;-83
2022/05/15 17:00:55;;;;;;;;;;;;;;;;;;4902120;29;19927;-82
2022/05/15 17:03:21;;;;;;;;;;;;;;;;;;4895212;29;20010;-82
2022/05/15 17:05:47;;;;;;;;;;;;;;;;;;4894250;29;19932;-82
2022/05/15 17:08:12;;;;;;;;;;;;;;;;;;4893141;29;19929;-82
2022/05/15 17:10:38;;;;;;;;;;;;;;;;;;4895230;29;19923;-80
2022/05/15 17:13:04;;;;;;;;;;;;;;;;;;4893434;29;20595;-83
2022/05/15 17:15:31;;;;;;;;;;;;;;;;;;4892575;29;19920;-84
2022/05/15 17:17:57;;;;;;;;;;;;;;;;;;4893321;29;19945;-86
2022/05/15 17:20:22;;;;;;;;;;;;;;;;;;4896945;29;19934;-82
2022/05/15 17:22:48;;;;;;;;;;;;;;;;;;4897464;29;20066;-85
2022/05/15 17:25:14;;;;;;;;;;;;;;;;;;4896389;29;19931;-85